Flight Track Log - Related Links

Times and Time Zones

All times are in EDT time to prevent confusion due to time zone crossing. See the N960DL flight status page for this flight to view local times or setup timezone preferences in your user account.

Time Position Orientation Groundspeed Altitude Reporting Facility
EDT Latitude Longitude Course Direction KTS MPH feet Rate Location/Type
Sun 04:34:50 PM 41.9292 -72.7025 242° Southwest 148 170 1,000  Level Boston Center
Sun 04:36:00 PM 41.9206 -72.7833 262° West 191 220 2,700 2,077 Climbing Boston Center
Sun 04:37:00 PM 41.9130 -73.1168 262° West  Level FlightAware Approximate
Sun 04:37:00 PM 41.9078 -72.8808 260° West 226 260 5,500  Level Boston Center
Sun 04:38:00 PM 41.9000 -73.2607 270° West  Level FlightAware Approximate
Sun 04:38:00 PM 41.9094 -72.9814 271° West 242 278 8,500  Level Boston Center
Sun 04:39:00 PM 41.8561 -73.3878 236° Southwest  Level FlightAware Approximate
Sun 04:39:00 PM 41.9131 -73.0761 273° West 272 313 10,600  Level Boston Center
Sun 04:40:00 PM 41.8016 -73.5128 242° Southwest  Level FlightAware Approximate
Sun 04:40:00 PM 41.9122 -73.2100 270° West 316 364 11,800  Level Boston Center
Sun 04:41:00 PM 41.8947 -73.3325 259° West 360 414 13,000 1,950 Climbing Boston Center
Sun 04:42:00 PM 41.8331 -73.4625 238° Southwest 386 444 15,700 2,400 Climbing Boston Center
Sun 04:43:00 PM 41.7608 -73.5978 234° Southwest 405 466 17,800 1,900 Climbing Boston Center
Sun 04:44:00 PM 41.6519 -73.6597 203° Southwest 409 471 19,500 2,100 Climbing Boston Center
Sun 04:45:00 PM 41.5556 -73.6994 197° South 409 471 22,000 2,234 Climbing Boston Center
Sun 04:46:17 PM 41.4111 -73.7642 199° South 386 444 24,600 1,883 Climbing New York Center
Sun 04:47:17 PM 41.3175 -73.8372 210° Southwest 392 451 26,300 1,279 Climbing New York Center
Sun 04:48:19 PM 41.2461 -73.9444 228° Southwest 384 442 27,200 807 Climbing New York Center
Sun 04:49:16 PM 41.1700 -74.0567 228° Southwest 391 450 27,900 763 Climbing New York Center
Sun 04:50:17 PM 41.0961 -74.1714 230° Southwest 414 476 28,700 976 Climbing New York Center
Sun 04:51:19 PM 41.0197 -74.2886 229° Southwest 421 484 29,900 655 Climbing New York Center
Sun 04:52:16 PM 40.9472 -74.4083 231° Southwest 426 490 30,000 356 Climbing New York Center
Sun 04:53:17 PM 40.8728 -74.5250 230° Southwest 420 483 30,600 836 Climbing New York Center
Sun 04:54:18 PM 40.7981 -74.6417 230° Southwest 420 483 31,700 689 Climbing New York Center
Sun 04:55:19 PM 40.7275 -74.7608 232° Southwest 420 483 32,000 153 Climbing New York Center
Sun 04:56:16 PM 40.6569 -74.8744 231° Southwest 415 478 32,000  Level New York Center
Sun 04:57:16 PM 40.5864 -74.9875 231° Southwest 415 478 32,000  Level New York Center
Sun 04:58:17 PM 40.5156 -75.1006 231° Southwest 415 478 32,000  Level New York Center
Sun 04:59:17 PM 40.4425 -75.2161 230° Southwest 415 478 32,000  Level New York Center
Sun 05:00:17 PM 40.3733 -75.3314 232° Southwest 415 478 32,000  Level New York Center
Sun 05:01:18 PM 40.3003 -75.4408 229° Southwest 415 478 32,000  Level New York Center
Sun 05:02:18 PM 40.2358 -75.5453 231° Southwest 420 483 32,000  Level New York Center
Sun 05:03:17 PM 40.1725 -75.6633 235° Southwest 415 478 32,000  Level New York Center
Sun 05:04:18 PM 40.1050 -75.7833 234° Southwest 410 472 32,000  Level New York Center
Sun 05:05:19 PM 40.0333 -75.8950 230° Southwest 410 472 32,000  Level New York Center
Sun 05:06:16 PM 39.9639 -76.0061 231° Southwest 410 472 32,000  Level New York Center
Sun 05:07:16 PM 39.8858 -76.1194 228° Southwest 410 472 32,000  Level New York Center
Sun 05:08:17 PM 39.8161 -76.2303 231° Southwest 410 472 32,000  Level New York Center
Sun 05:10:26 PM 39.6686 -76.4758 232° Southwest 404 465 32,000  Level Washington Center
Sun 05:11:26 PM 39.5908 -76.5825 227° Southwest 404 465 32,000  Level Washington Center
Sun 05:12:26 PM 39.5211 -76.6892 230° Southwest 404 465 32,000  Level Washington Center
Sun 05:13:24 PM 39.4533 -76.7983 231° Southwest 399 459 32,000  Level Washington Center
Sun 05:14:25 PM 39.3856 -76.9047 231° Southwest 399 459 32,000  Level Washington Center
Sun 05:15:25 PM 39.3156 -77.0106 229° Southwest 399 459 32,000 -694 Level Washington Center
Sun 05:16:26 PM 39.2456 -77.1192 230° Southwest 399 459 30,600 -1,714 Descending Washington Center
Sun 05:17:24 PM 39.1733 -77.2275 229° Southwest 399 459 28,600 -1,311 Descending Washington Center
Sun 05:18:25 PM 39.1028 -77.3383 231° Southwest 399 459 28,000 -295 Descending Washington Center
Sun 05:19:26 PM 39.0306 -77.4461 229° Southwest 399 459 28,000  Level Washington Center
Sun 05:20:24 PM 38.9600 -77.5564 231° Southwest 399 459 28,000  Level Washington Center
Sun 05:21:24 PM 38.8936 -77.6506 228° Southwest 399 459 28,000  Level Washington Center
Sun 05:22:25 PM 38.8208 -77.7631 230° Southwest 405 466 28,000  Level Washington Center
Sun 05:23:26 PM 38.7481 -77.8728 230° Southwest 412 474 28,000  Level Washington Center
Sun 05:24:25 PM 38.6750 -77.9797 229° Southwest 407 468 28,000  Level Washington Center
Sun 05:25:25 PM 38.6019 -78.0889 229° Southwest 407 468 28,000  Level Washington Center
Sun 05:26:26 PM 38.5286 -78.1978 229° Southwest 407 468 28,000  Level Washington Center
Sun 05:27:24 PM 38.4575 -78.3042 230° Southwest 402 463 28,000  Level Washington Center
Sun 05:28:25 PM 38.3842 -78.4100 229° Southwest 402 463 28,000  Level Washington Center
Sun 05:29:25 PM 38.3150 -78.5133 230° Southwest 396 456 28,000  Level Washington Center
Sun 05:30:26 PM 38.2478 -78.6136 230° Southwest 391 450 28,000  Level Washington Center
Sun 05:31:24 PM 38.1764 -78.7164 229° Southwest 391 450 28,000  Level Washington Center
Sun 05:32:25 PM 38.1047 -78.8192 228° Southwest 391 450 28,000  Level Washington Center
Sun 05:33:26 PM 38.0289 -78.9292 229° Southwest 396 456 28,000  Level Washington Center
Sun 05:34:24 PM 37.9592 -79.0289 228° Southwest 396 456 28,000  Level Washington Center
Sun 05:35:25 PM 37.8919 -79.1231 228° Southwest 385 443 28,000  Level Washington Center
Sun 05:36:25 PM 37.8222 -79.2197 228° Southwest 379 436 28,000  Level Washington Center
Sun 05:37:26 PM 37.7592 -79.3033 226° Southwest 379 436 28,000  Level Washington Center
Sun 05:38:24 PM 37.6875 -79.3969 226° Southwest 379 436 28,000  Level Washington Center
Sun 05:39:25 PM 37.6131 -79.5033 229° Southwest 379 436 28,000  Level Washington Center
Sun 05:40:26 PM 37.5519 -79.5892 228° Southwest 379 436 28,000  Level Washington Center
Sun 05:41:24 PM 37.4753 -79.6925 227° Southwest 372 428 28,000  Level Washington Center
Sun 05:42:25 PM 37.4139 -79.7833 230° Southwest 377 434 28,000  Level Washington Center
Sun 05:43:25 PM 37.3436 -79.8761 226° Southwest 377 434 28,000  Level Washington Center
Sun 05:45:43 PM 37.1833 -80.0897 227° Southwest 365 420 28,000  Level Atlanta Center
Sun 05:46:43 PM 37.1156 -80.1842 228° Southwest 365 420 28,000  Level Atlanta Center
Sun 05:47:43 PM 37.0453 -80.2786 227° Southwest 365 420 28,000  Level Atlanta Center
Sun 05:48:43 PM 36.9753 -80.3703 226° Southwest 365 420 28,000  Level Atlanta Center
Sun 05:49:43 PM 36.8969 -80.4725 226° Southwest 365 420 28,000  Level Atlanta Center
Sun 05:50:43 PM 36.8286 -80.5636 227° Southwest 365 420 28,000  Level Atlanta Center
Sun 05:51:43 PM 36.7603 -80.6547 227° Southwest 365 420 28,000  Level Atlanta Center
Sun 05:52:43 PM 36.6919 -80.7458 227° Southwest 359 413 28,000  Level Atlanta Center
Sun 05:53:43 PM 36.6233 -80.8392 228° Southwest 359 413 28,000  Level Atlanta Center
Sun 05:54:43 PM 36.5569 -80.9269 227° Southwest 359 413 28,000  Level Atlanta Center
Sun 05:55:43 PM 36.4861 -81.0203 227° Southwest 354 407 28,000  Level Atlanta Center
Sun 05:56:43 PM 36.4194 -81.1078 227° Southwest 354 407 28,000  Level Atlanta Center
Sun 05:57:43 PM 36.3508 -81.2006 227° Southwest 359 413 28,000  Level Atlanta Center
Sun 05:58:43 PM 36.2819 -81.2931 227° Southwest 359 413 28,000  Level Atlanta Center
Sun 05:59:43 PM 36.2111 -81.3831 226° Southwest 359 413 28,000  Level Atlanta Center
Sun 06:00:43 PM 36.1419 -81.4753 227° Southwest 359 413 28,000  Level Atlanta Center
Sun 06:01:43 PM 36.0728 -81.5622 225° Southwest 359 413 28,000  Level Atlanta Center
Sun 06:02:43 PM 36.0017 -81.6517 226° Southwest 358 412 28,000  Level Atlanta Center
Sun 06:03:43 PM 35.9306 -81.7461 227° Southwest 358 412 28,000  Level Atlanta Center
Sun 06:04:43 PM 35.8633 -81.8350 227° Southwest 358 412 28,000  Level Atlanta Center
Sun 06:05:43 PM 35.7939 -81.9242 226° Southwest 358 412 28,000  Level Atlanta Center
Sun 06:06:43 PM 35.7328 -82.0025 226° Southwest 358 412 28,000  Level Atlanta Center
Sun 06:07:43 PM 35.6631 -82.0911 226° Southwest 358 412 28,000  Level Atlanta Center
Sun 06:08:43 PM 35.5936 -82.1822 227° Southwest 353 406 28,000  Level Atlanta Center
Sun 06:09:43 PM 35.5219 -82.2731 226° Southwest 359 413 28,000  Level Atlanta Center
Sun 06:10:43 PM 35.4522 -82.3611 226° Southwest 359 413 28,000 -450 Level Atlanta Center
Sun 06:11:43 PM 35.3806 -82.4519 226° Southwest 364 419 27,100 -1,250 Descending Atlanta Center
Sun 06:12:43 PM 35.3044 -82.5397 223° Southwest 370 426 25,500 -1,500 Descending Atlanta Center
Sun 06:13:43 PM 35.2261 -82.6200 220° Southwest 370 426 24,100 -750 Descending Atlanta Center
Sun 06:14:43 PM 35.1456 -82.7103 223° Southwest 382 440 24,000 -50 Descending Atlanta Center
Sun 06:15:43 PM 35.0631 -82.7978 221° Southwest 389 448 24,000  Level Atlanta Center
Sun 06:16:43 PM 34.9825 -82.8903 223° Southwest 389 448 24,000  Level Atlanta Center
Sun 06:17:43 PM 34.8978 -82.9750 219° Southwest 395 455 24,000  Level Atlanta Center
Sun 06:18:43 PM 34.8131 -83.0722 223° Southwest 395 455 24,000  Level Atlanta Center
Sun 06:19:43 PM 34.7261 -83.1592 219° Southwest 395 455 24,000  Level Atlanta Center
Sun 06:20:43 PM 34.6433 -83.2511 222° Southwest 400 460 24,000  Level Atlanta Center
Sun 06:21:43 PM 34.5603 -83.3425 222° Southwest 400 460 24,000 -550 Level Atlanta Center
Sun 06:22:43 PM 34.4772 -83.4289 221° Southwest 406 467 22,900 -1,550 Descending Atlanta Center
Sun 06:23:43 PM 34.3942 -83.5178 221° Southwest 406 467 20,900 -2,250 Descending Atlanta Center
Sun 06:24:43 PM 34.3172 -83.6011 222° Southwest 395 455 18,400 -2,450 Descending Atlanta Center
Sun 06:25:43 PM 34.2425 -83.6769 220° Southwest 369 425 16,000 -2,050 Descending Atlanta Center
Sun 06:26:43 PM 34.1781 -83.7450 221° Southwest 357 411 14,300 -1,000 Descending Atlanta Center
Sun 06:27:43 PM 34.1156 -83.8131 222° Southwest 334 384 14,000 -150 Descending Atlanta Center
Sun 06:28:43 PM 34.0614 -83.8733 223° Southwest 290 334 14,000  Level Atlanta Center
Sun 06:29:43 PM 34.0697 -83.9561 277° West 243 280 14,000  Level Atlanta Center
Sun 06:30:43 PM 34.1511 -83.9533 North 218 251 14,000  Level Atlanta Center
Sun 06:31:43 PM 34.2261 -83.8781 40° Northeast 287 330 14,000  Level Atlanta Center
Sun 06:32:43 PM 34.3011 -83.8100 37° Northeast 323 372 14,000  Level Atlanta Center
Sun 06:33:43 PM 34.3617 -83.7242 49° Northeast 336 387 14,000  Level Atlanta Center
Sun 06:34:43 PM 34.3069 -83.6514 132° Southeast 208 239 14,000 -350 Level Atlanta Center
Sun 06:35:43 PM 34.2383 -83.7019 211° Southwest 148 170 13,300 -500 Descending Atlanta Center
Sun 06:36:43 PM 34.1800 -83.7600 219° Southwest 249 287 13,000 -150 Descending Atlanta Center
Sun 06:37:43 PM 34.1239 -83.8156 219° Southwest 261 300 13,000  Level Atlanta Center
Sun 06:38:43 PM 34.0675 -83.8708 219° Southwest 261 300 13,000  Level Atlanta Center
Sun 06:39:43 PM 34.0761 -83.9536 277° West 225 259 13,000  Level Atlanta Center
Sun 06:40:43 PM 34.1575 -83.9458 North 166 191 13,000  Level Atlanta Center
Sun 06:41:43 PM 34.2094 -83.8531 56° Northeast 244 281 13,000  Level Atlanta Center
Sun 06:42:43 PM 34.1717 -83.7703 119° Southeast 236 272 13,000  Level Atlanta Center
Sun 06:43:43 PM 34.1175 -83.8031 207° Southwest 148 170 13,000 -150 Level Atlanta Center
Sun 06:44:43 PM 34.0675 -83.8708 228° Southwest 209 241 12,700 -539 Descending Atlanta Center
Sun 06:45:12 PM 34.0333 -83.9000 215° Southwest 267 307 12,200 -416 Descending Atlanta TRACON
Sun 06:46:24 PM 33.9667 -83.9833 226° Southwest 260 299 12,000 -95 Descending Atlanta TRACON
Sun 06:47:18 PM 33.9333 -84.0333 231° Southwest 248 285 12,000  Level Atlanta TRACON
Sun 06:48:18 PM 33.8833 -84.1000 228° Southwest 254 292 12,000  Level Atlanta TRACON
Sun 06:49:18 PM 33.8500 -84.1667 239° Southwest 258 297 12,000  Level Atlanta TRACON
Sun 06:50:12 PM 33.8000 -84.2333 228° Southwest 264 304 12,000 -100 Level Atlanta TRACON
Sun 06:51:18 PM 33.7500 -84.3167 234° Southwest 260 299 11,800 -850 Descending Atlanta TRACON
Sun 06:52:19 PM 33.7333 -84.4000 256° West 267 307 10,200 -1,559 Descending Atlanta TRACON
Sun 06:53:25 PM 33.7333 -84.4833 270° West 266 306 8,500 -1,500 Descending Atlanta TRACON
Sun 06:54:19 PM 33.7333 -84.5667 270° West 252 290 7,200 -1,444 Descending Atlanta TRACON

Login

Don't have an account? Register now (free) for customized features, flight alerts, and more!